sensor_id;sensor_type;location;lat;lon;timestamp;P1;durP1;ratioP1;P2;durP2;ratioP2
25069;SDS011;13064;48.162;11.536;2023-02-22T00:01:32;17.25;;;6.65;;
25069;SDS011;13064;48.162;11.536;2023-02-22T00:04:16;17.25;;;6.95;;
25069;SDS011;13064;48.162;11.536;2023-02-22T00:06:46;17.60;;;7.20;;
25069;SDS011;13064;48.162;11.536;2023-02-22T00:09:15;13.75;;;5.70;;
25069;SDS011;13064;48.162;11.536;2023-02-22T00:11:46;16.77;;;7.17;;
25069;SDS011;13064;48.162;11.536;2023-02-22T00:14:14;17.40;;;6.68;;
25069;SDS011;13064;48.162;11.536;2023-02-22T00:16:45;13.07;;;6.20;;
25069;SDS011;13064;48.162;11.536;2023-02-22T00:19:13;16.17;;;6.25;;
25069;SDS011;13064;48.162;11.536;2023-02-22T00:21:40;12.70;;;6.25;;
25069;SDS011;13064;48.162;11.536;2023-02-22T00:24:10;14.35;;;5.88;;
25069;SDS011;13064;48.162;11.536;2023-02-22T00:26:53;17.98;;;5.95;;
25069;SDS011;13064;48.162;11.536;2023-02-22T00:29:22;11.30;;;5.95;;
25069;SDS011;13064;48.162;11.536;2023-02-22T00:31:49;11.98;;;6.07;;
25069;SDS011;13064;48.162;11.536;2023-02-22T00:34:17;12.57;;;5.55;;
25069;SDS011;13064;48.162;11.536;2023-02-22T00:36:45;12.48;;;5.70;;
25069;SDS011;13064;48.162;11.536;2023-02-22T00:39:13;12.52;;;5.60;;
25069;SDS011;13064;48.162;11.536;2023-02-22T00:41:41;12.27;;;5.78;;
25069;SDS011;13064;48.162;11.536;2023-02-22T00:44:09;11.63;;;5.75;;
25069;SDS011;13064;48.162;11.536;2023-02-22T00:46:38;12.60;;;5.50;;
25069;SDS011;13064;48.162;11.536;2023-02-22T00:49:05;11.65;;;5.68;;
25069;SDS011;13064;48.162;11.536;2023-02-22T00:51:33;11.07;;;6.20;;
25069;SDS011;13064;48.162;11.536;2023-02-22T00:54:01;11.27;;;6.15;;
25069;SDS011;13064;48.162;11.536;2023-02-22T00:56:28;9.68;;;4.97;;
25069;SDS011;13064;48.162;11.536;2023-02-22T00:58:57;13.15;;;5.57;;
25069;SDS011;13064;48.162;11.536;2023-02-22T01:01:26;7.53;;;5.07;;
25069;SDS011;13064;48.162;11.536;2023-02-22T01:03:54;11.52;;;5.15;;
25069;SDS011;13064;48.162;11.536;2023-02-22T01:06:22;11.65;;;5.80;;
25069;SDS011;13064;48.162;11.536;2023-02-22T01:08:49;14.60;;;5.90;;
25069;SDS011;13064;48.162;11.536;2023-02-22T01:11:17;18.88;;;7.82;;
25069;SDS011;13064;48.162;11.536;2023-02-22T01:13:45;17.65;;;7.75;;
25069;SDS011;13064;48.162;11.536;2023-02-22T01:16:12;19.27;;;6.90;;
25069;SDS011;13064;48.162;11.536;2023-02-22T01:18:40;15.27;;;6.00;;
25069;SDS011;13064;48.162;11.536;2023-02-22T01:21:08;13.07;;;6.40;;
25069;SDS011;13064;48.162;11.536;2023-02-22T01:23:36;17.13;;;6.88;;
25069;SDS011;13064;48.162;11.536;2023-02-22T01:26:04;14.77;;;6.80;;
25069;SDS011;13064;48.162;11.536;2023-02-22T01:28:32;13.50;;;6.45;;
25069;SDS011;13064;48.162;11.536;2023-02-22T01:31:01;9.75;;;5.15;;
25069;SDS011;13064;48.162;11.536;2023-02-22T01:33:29;15.35;;;6.30;;
25069;SDS011;13064;48.162;11.536;2023-02-22T01:35:56;15.55;;;6.28;;
25069;SDS011;13064;48.162;11.536;2023-02-22T01:38:26;18.00;;;7.18;;
25069;SDS011;13064;48.162;11.536;2023-02-22T01:40:53;14.70;;;5.97;;
25069;SDS011;13064;48.162;11.536;2023-02-22T01:43:22;10.18;;;5.53;;
25069;SDS011;13064;48.162;11.536;2023-02-22T01:48:23;14.20;;;5.95;;
25069;SDS011;13064;48.162;11.536;2023-02-22T01:50:53;12.48;;;5.18;;
25069;SDS011;13064;48.162;11.536;2023-02-22T01:53:23;10.43;;;5.30;;
25069;SDS011;13064;48.162;11.536;2023-02-22T01:55:52;11.82;;;5.68;;
25069;SDS011;13064;48.162;11.536;2023-02-22T01:58:21;14.65;;;6.03;;
25069;SDS011;13064;48.162;11.536;2023-02-22T02:00:50;17.27;;;6.35;;
25069;SDS011;13064;48.162;11.536;2023-02-22T02:03:19;12.18;;;5.43;;
25069;SDS011;13064;48.162;11.536;2023-02-22T02:05:48;12.73;;;5.43;;
25069;SDS011;13064;48.162;11.536;2023-02-22T02:08:20;9.73;;;4.97;;
25069;SDS011;13064;48.162;11.536;2023-02-22T02:10:54;11.60;;;5.25;;
25069;SDS011;13064;48.162;11.536;2023-02-22T02:13:24;12.88;;;5.38;;
25069;SDS011;13064;48.162;11.536;2023-02-22T02:15:53;11.60;;;5.18;;
25069;SDS011;13064;48.162;11.536;2023-02-22T02:18:21;12.43;;;5.60;;
25069;SDS011;13064;48.162;11.536;2023-02-22T02:26:17;9.70;;;4.68;;
25069;SDS011;13064;48.162;11.536;2023-02-22T02:33:58;6.97;;;4.53;;
25069;SDS011;13064;48.162;11.536;2023-02-22T02:36:30;8.00;;;4.50;;
25069;SDS011;13064;48.162;11.536;2023-02-22T02:41:34;9.68;;;4.45;;
25069;SDS011;13064;48.162;11.536;2023-02-22T02:46:34;7.05;;;3.67;;
25069;SDS011;13064;48.162;11.536;2023-02-22T02:49:06;5.75;;;3.90;;
25069;SDS011;13064;48.162;11.536;2023-02-22T02:51:35;5.53;;;3.50;;
25069;SDS011;13064;48.162;11.536;2023-02-22T02:54:05;6.85;;;3.35;;
25069;SDS011;13064;48.162;11.536;2023-02-22T02:56:33;7.22;;;3.72;;
25069;SDS011;13064;48.162;11.536;2023-02-22T02:59:01;8.65;;;3.67;;
25069;SDS011;13064;48.162;11.536;2023-02-22T03:07:02;5.15;;;3.25;;
25069;SDS011;13064;48.162;11.536;2023-02-22T03:17:26;4.55;;;3.50;;
25069;SDS011;13064;48.162;11.536;2023-02-22T03:20:00;5.88;;;3.15;;
25069;SDS011;13064;48.162;11.536;2023-02-22T03:22:32;8.95;;;4.28;;
25069;SDS011;13064;48.162;11.536;2023-02-22T03:25:05;5.20;;;3.13;;
25069;SDS011;13064;48.162;11.536;2023-02-22T03:27:44;8.35;;;3.53;;
25069;SDS011;13064;48.162;11.536;2023-02-22T03:30:25;7.95;;;2.95;;
25069;SDS011;13064;48.162;11.536;2023-02-22T03:32:59;8.20;;;3.58;;
25069;SDS011;13064;48.162;11.536;2023-02-22T03:35:30;4.85;;;2.80;;
25069;SDS011;13064;48.162;11.536;2023-02-22T03:37:59;4.30;;;2.78;;
25069;SDS011;13064;48.162;11.536;2023-02-22T03:40:30;6.78;;;2.63;;
25069;SDS011;13064;48.162;11.536;2023-02-22T03:43:08;5.88;;;2.90;;
25069;SDS011;13064;48.162;11.536;2023-02-22T03:45:43;4.35;;;2.83;;
25069;SDS011;13064;48.162;11.536;2023-02-22T03:48:20;4.25;;;2.70;;
25069;SDS011;13064;48.162;11.536;2023-02-22T03:50:50;3.97;;;2.58;;
25069;SDS011;13064;48.162;11.536;2023-02-22T03:53:19;5.43;;;2.90;;
25069;SDS011;13064;48.162;11.536;2023-02-22T03:55:49;8.13;;;2.65;;
25069;SDS011;13064;48.162;11.536;2023-02-22T03:58:19;5.13;;;2.53;;
25069;SDS011;13064;48.162;11.536;2023-02-22T04:00:48;6.90;;;2.50;;
25069;SDS011;13064;48.162;11.536;2023-02-22T04:03:19;4.75;;;2.67;;
25069;SDS011;13064;48.162;11.536;2023-02-22T04:05:47;4.18;;;2.92;;
25069;SDS011;13064;48.162;11.536;2023-02-22T04:08:15;4.18;;;2.65;;
25069;SDS011;13064;48.162;11.536;2023-02-22T04:10:43;6.30;;;2.50;;
25069;SDS011;13064;48.162;11.536;2023-02-22T04:13:12;4.07;;;2.53;;
25069;SDS011;13064;48.162;11.536;2023-02-22T04:15:44;5.47;;;2.75;;
25069;SDS011;13064;48.162;11.536;2023-02-22T04:18:11;5.10;;;2.33;;
25069;SDS011;13064;48.162;11.536;2023-02-22T04:20:40;4.28;;;2.47;;
25069;SDS011;13064;48.162;11.536;2023-02-22T04:23:10;4.70;;;2.50;;
25069;SDS011;13064;48.162;11.536;2023-02-22T04:25:40;3.60;;;2.55;;
25069;SDS011;13064;48.162;11.536;2023-02-22T04:28:11;6.18;;;2.40;;
25069;SDS011;13064;48.162;11.536;2023-02-22T04:30:48;6.00;;;2.20;;
25069;SDS011;13064;48.162;11.536;2023-02-22T04:33:17;3.72;;;2.58;;
25069;SDS011;13064;48.162;11.536;2023-02-22T04:35:45;6.32;;;2.58;;
25069;SDS011;13064;48.162;11.536;2023-02-22T04:38:13;4.90;;;2.67;;
25069;SDS011;13064;48.162;11.536;2023-02-22T04:40:40;3.97;;;2.50;;
25069;SDS011;13064;48.162;11.536;2023-02-22T04:43:08;7.45;;;2.65;;
25069;SDS011;13064;48.162;11.536;2023-02-22T04:45:36;3.85;;;2.67;;
25069;SDS011;13064;48.162;11.536;2023-02-22T04:48:04;3.53;;;2.30;;
25069;SDS011;13064;48.162;11.536;2023-02-22T04:50:32;4.63;;;2.83;;
25069;SDS011;13064;48.162;11.536;2023-02-22T04:53:01;6.20;;;3.00;;
25069;SDS011;13064;48.162;11.536;2023-02-22T04:55:29;5.72;;;2.75;;
25069;SDS011;13064;48.162;11.536;2023-02-22T04:57:57;5.15;;;2.70;;
25069;SDS011;13064;48.162;11.536;2023-02-22T05:00:25;7.10;;;3.10;;
25069;SDS011;13064;48.162;11.536;2023-02-22T05:02:57;6.65;;;3.25;;
25069;SDS011;13064;48.162;11.536;2023-02-22T05:05:25;5.95;;;3.00;;
25069;SDS011;13064;48.162;11.536;2023-02-22T05:07:52;7.03;;;3.00;;
25069;SDS011;13064;48.162;11.536;2023-02-22T05:10:20;7.82;;;2.90;;
25069;SDS011;13064;48.162;11.536;2023-02-22T05:12:48;6.40;;;2.92;;
25069;SDS011;13064;48.162;11.536;2023-02-22T05:15:17;7.65;;;2.97;;
25069;SDS011;13064;48.162;11.536;2023-02-22T05:17:45;5.03;;;3.35;;
25069;SDS011;13064;48.162;11.536;2023-02-22T05:20:29;5.00;;;3.10;;
25069;SDS011;13064;48.162;11.536;2023-02-22T05:22:58;6.53;;;2.83;;
25069;SDS011;13064;48.162;11.536;2023-02-22T05:25:26;5.50;;;2.80;;
25069;SDS011;13064;48.162;11.536;2023-02-22T05:27:54;8.15;;;3.33;;
25069;SDS011;13064;48.162;11.536;2023-02-22T05:30:27;6.10;;;3.05;;
25069;SDS011;13064;48.162;11.536;2023-02-22T05:32:55;6.53;;;3.22;;
25069;SDS011;13064;48.162;11.536;2023-02-22T05:35:25;6.75;;;3.15;;
25069;SDS011;13064;48.162;11.536;2023-02-22T05:37:52;6.38;;;2.92;;
25069;SDS011;13064;48.162;11.536;2023-02-22T05:40:22;7.82;;;3.47;;
25069;SDS011;13064;48.162;11.536;2023-02-22T05:42:51;4.57;;;3.10;;
25069;SDS011;13064;48.162;11.536;2023-02-22T05:45:20;7.68;;;3.35;;
25069;SDS011;13064;48.162;11.536;2023-02-22T05:47:47;6.68;;;3.22;;
25069;SDS011;13064;48.162;11.536;2023-02-22T05:50:15;6.47;;;3.10;;
25069;SDS011;13064;48.162;11.536;2023-02-22T05:52:43;6.03;;;3.50;;
25069;SDS011;13064;48.162;11.536;2023-02-22T05:55:12;9.00;;;3.70;;
25069;SDS011;13064;48.162;11.536;2023-02-22T05:57:39;9.70;;;3.38;;
25069;SDS011;13064;48.162;11.536;2023-02-22T06:00:07;8.73;;;3.42;;
25069;SDS011;13064;48.162;11.536;2023-02-22T06:02:38;8.07;;;3.10;;
25069;SDS011;13064;48.162;11.536;2023-02-22T06:05:06;9.40;;;3.85;;
25069;SDS011;13064;48.162;11.536;2023-02-22T06:07:33;11.68;;;3.60;;
25069;SDS011;13064;48.162;11.536;2023-02-22T06:10:01;9.65;;;3.58;;
25069;SDS011;13064;48.162;11.536;2023-02-22T06:12:29;8.82;;;3.70;;
25069;SDS011;13064;48.162;11.536;2023-02-22T06:14:56;19.02;;;3.90;;
25069;SDS011;13064;48.162;11.536;2023-02-22T06:17:24;10.05;;;4.10;;
25069;SDS011;13064;48.162;11.536;2023-02-22T06:19:51;8.85;;;4.05;;
25069;SDS011;13064;48.162;11.536;2023-02-22T06:22:20;4.78;;;3.10;;
25069;SDS011;13064;48.162;11.536;2023-02-22T06:24:47;7.03;;;3.25;;
25069;SDS011;13064;48.162;11.536;2023-02-22T06:27:15;11.65;;;3.40;;
25069;SDS011;13064;48.162;11.536;2023-02-22T06:29:43;10.90;;;3.33;;
25069;SDS011;13064;48.162;11.536;2023-02-22T06:32:12;9.55;;;3.53;;
25069;SDS011;13064;48.162;11.536;2023-02-22T06:34:40;13.20;;;3.67;;
25069;SDS011;13064;48.162;11.536;2023-02-22T06:37:07;7.95;;;4.07;;
25069;SDS011;13064;48.162;11.536;2023-02-22T06:39:35;10.52;;;3.78;;
25069;SDS011;13064;48.162;11.536;2023-02-22T06:42:03;8.50;;;3.65;;
25069;SDS011;13064;48.162;11.536;2023-02-22T06:44:30;7.60;;;3.50;;
25069;SDS011;13064;48.162;11.536;2023-02-22T06:46:58;7.63;;;3.83;;
25069;SDS011;13064;48.162;11.536;2023-02-22T06:49:26;9.82;;;3.72;;
25069;SDS011;13064;48.162;11.536;2023-02-22T06:51:53;7.18;;;3.70;;
25069;SDS011;13064;48.162;11.536;2023-02-22T06:54:21;8.13;;;3.42;;
25069;SDS011;13064;48.162;11.536;2023-02-22T06:56:49;9.30;;;3.92;;
25069;SDS011;13064;48.162;11.536;2023-02-22T06:59:17;10.27;;;3.85;;
25069;SDS011;13064;48.162;11.536;2023-02-22T07:01:44;10.48;;;4.43;;
25069;SDS011;13064;48.162;11.536;2023-02-22T07:04:12;13.18;;;3.50;;
25069;SDS011;13064;48.162;11.536;2023-02-22T07:06:43;11.15;;;3.63;;
25069;SDS011;13064;48.162;11.536;2023-02-22T07:09:12;9.63;;;3.80;;
25069;SDS011;13064;48.162;11.536;2023-02-22T07:11:41;13.35;;;3.90;;
25069;SDS011;13064;48.162;11.536;2023-02-22T07:14:08;9.10;;;3.67;;
25069;SDS011;13064;48.162;11.536;2023-02-22T07:16:36;8.65;;;3.55;;
25069;SDS011;13064;48.162;11.536;2023-02-22T07:19:04;11.40;;;3.55;;
25069;SDS011;13064;48.162;11.536;2023-02-22T07:21:31;8.68;;;3.42;;
25069;SDS011;13064;48.162;11.536;2023-02-22T07:23:59;13.63;;;3.38;;
25069;SDS011;13064;48.162;11.536;2023-02-22T07:26:28;8.10;;;4.20;;
25069;SDS011;13064;48.162;11.536;2023-02-22T07:28:56;9.00;;;3.33;;
25069;SDS011;13064;48.162;11.536;2023-02-22T07:31:24;5.93;;;3.38;;
25069;SDS011;13064;48.162;11.536;2023-02-22T07:33:54;12.07;;;3.08;;
25069;SDS011;13064;48.162;11.536;2023-02-22T07:36:22;7.82;;;2.67;;
25069;SDS011;13064;48.162;11.536;2023-02-22T07:38:50;6.72;;;3.42;;
25069;SDS011;13064;48.162;11.536;2023-02-22T07:41:17;8.85;;;3.33;;
25069;SDS011;13064;48.162;11.536;2023-02-22T07:43:45;6.22;;;3.28;;
25069;SDS011;13064;48.162;11.536;2023-02-22T07:46:13;8.88;;;2.78;;
25069;SDS011;13064;48.162;11.536;2023-02-22T07:48:40;15.50;;;2.80;;
25069;SDS011;13064;48.162;11.536;2023-02-22T07:51:08;10.88;;;2.92;;
25069;SDS011;13064;48.162;11.536;2023-02-22T07:53:36;6.38;;;3.08;;
25069;SDS011;13064;48.162;11.536;2023-02-22T07:56:04;10.35;;;3.30;;
25069;SDS011;13064;48.162;11.536;2023-02-22T07:58:34;5.72;;;2.58;;
25069;SDS011;13064;48.162;11.536;2023-02-22T08:01:01;9.60;;;2.83;;
25069;SDS011;13064;48.162;11.536;2023-02-22T08:03:30;10.13;;;2.72;;
25069;SDS011;13064;48.162;11.536;2023-02-22T08:05:59;9.13;;;3.03;;
25069;SDS011;13064;48.162;11.536;2023-02-22T08:08:28;7.88;;;2.65;;
25069;SDS011;13064;48.162;11.536;2023-02-22T08:10:56;6.55;;;2.40;;
25069;SDS011;13064;48.162;11.536;2023-02-22T08:13:24;6.95;;;2.20;;
25069;SDS011;13064;48.162;11.536;2023-02-22T08:15:51;4.95;;;2.28;;
25069;SDS011;13064;48.162;11.536;2023-02-22T08:18:20;8.50;;;2.90;;
25069;SDS011;13064;48.162;11.536;2023-02-22T08:20:48;5.20;;;2.67;;
25069;SDS011;13064;48.162;11.536;2023-02-22T08:23:18;4.63;;;2.15;;
25069;SDS011;13064;48.162;11.536;2023-02-22T08:25:46;4.97;;;2.05;;
25069;SDS011;13064;48.162;11.536;2023-02-22T08:28:14;8.45;;;2.53;;
25069;SDS011;13064;48.162;11.536;2023-02-22T08:30:42;6.78;;;2.20;;
25069;SDS011;13064;48.162;11.536;2023-02-22T08:33:10;7.72;;;2.63;;
25069;SDS011;13064;48.162;11.536;2023-02-22T08:35:40;6.63;;;2.47;;
25069;SDS011;13064;48.162;11.536;2023-02-22T08:38:14;6.07;;;2.42;;
25069;SDS011;13064;48.162;11.536;2023-02-22T08:40:42;6.93;;;2.22;;
25069;SDS011;13064;48.162;11.536;2023-02-22T08:43:09;6.00;;;2.30;;
25069;SDS011;13064;48.162;11.536;2023-02-22T08:45:39;9.13;;;2.72;;
25069;SDS011;13064;48.162;11.536;2023-02-22T08:48:06;3.75;;;2.20;;
25069;SDS011;13064;48.162;11.536;2023-02-22T08:50:34;5.05;;;2.40;;
25069;SDS011;13064;48.162;11.536;2023-02-22T08:53:03;5.60;;;2.25;;
25069;SDS011;13064;48.162;11.536;2023-02-22T08:55:33;4.93;;;2.13;;
25069;SDS011;13064;48.162;11.536;2023-02-22T08:58:00;6.03;;;2.13;;
25069;SDS011;13064;48.162;11.536;2023-02-22T09:00:29;3.83;;;2.40;;
25069;SDS011;13064;48.162;11.536;2023-02-22T09:03:02;3.15;;;1.77;;
25069;SDS011;13064;48.162;11.536;2023-02-22T09:05:30;4.03;;;2.05;;
25069;SDS011;13064;48.162;11.536;2023-02-22T09:07:58;3.80;;;2.20;;
25069;SDS011;13064;48.162;11.536;2023-02-22T09:10:28;5.80;;;1.67;;
25069;SDS011;13064;48.162;11.536;2023-02-22T09:12:56;4.88;;;1.83;;
25069;SDS011;13064;48.162;11.536;2023-02-22T09:15:26;2.42;;;1.60;;
25069;SDS011;13064;48.162;11.536;2023-02-22T09:17:54;5.07;;;1.52;;
25069;SDS011;13064;48.162;11.536;2023-02-22T09:20:22;5.80;;;1.60;;
25069;SDS011;13064;48.162;11.536;2023-02-22T09:22:50;4.30;;;1.65;;
25069;SDS011;13064;48.162;11.536;2023-02-22T09:25:19;5.95;;;1.90;;
25069;SDS011;13064;48.162;11.536;2023-02-22T09:27:47;4.40;;;1.70;;
25069;SDS011;13064;48.162;11.536;2023-02-22T09:30:17;6.57;;;1.73;;
25069;SDS011;13064;48.162;11.536;2023-02-22T09:32:45;2.95;;;1.52;;
25069;SDS011;13064;48.162;11.536;2023-02-22T09:35:13;4.88;;;1.60;;
25069;SDS011;13064;48.162;11.536;2023-02-22T09:37:41;5.47;;;1.40;;
25069;SDS011;13064;48.162;11.536;2023-02-22T09:40:14;5.28;;;1.88;;
25069;SDS011;13064;48.162;11.536;2023-02-22T09:43:14;4.18;;;1.52;;
25069;SDS011;13064;48.162;11.536;2023-02-22T09:45:43;6.45;;;2.15;;
25069;SDS011;13064;48.162;11.536;2023-02-22T09:48:13;2.35;;;1.27;;
25069;SDS011;13064;48.162;11.536;2023-02-22T09:50:48;5.07;;;1.42;;
25069;SDS011;13064;48.162;11.536;2023-02-22T09:53:37;1.90;;;1.40;;
25069;SDS011;13064;48.162;11.536;2023-02-22T09:56:07;3.92;;;1.60;;
25069;SDS011;13064;48.162;11.536;2023-02-22T09:58:43;5.85;;;1.58;;
25069;SDS011;13064;48.162;11.536;2023-02-22T10:01:21;7.38;;;1.63;;
25069;SDS011;13064;48.162;11.536;2023-02-22T10:04:14;7.70;;;1.88;;
25069;SDS011;13064;48.162;11.536;2023-02-22T10:09:36;4.13;;;1.95;;
25069;SDS011;13064;48.162;11.536;2023-02-22T10:14:48;5.05;;;1.80;;
25069;SDS011;13064;48.162;11.536;2023-02-22T10:17:20;8.23;;;2.10;;
25069;SDS011;13064;48.162;11.536;2023-02-22T10:25:00;4.50;;;1.70;;
25069;SDS011;13064;48.162;11.536;2023-02-22T10:27:38;9.77;;;1.75;;
25069;SDS011;13064;48.162;11.536;2023-02-22T10:30:14;7.40;;;1.70;;
25069;SDS011;13064;48.162;11.536;2023-02-22T10:35:22;6.10;;;1.98;;
25069;SDS011;13064;48.162;11.536;2023-02-22T10:37:55;9.70;;;2.60;;
25069;SDS011;13064;48.162;11.536;2023-02-22T10:40:24;9.75;;;1.92;;
25069;SDS011;13064;48.162;11.536;2023-02-22T10:43:07;7.75;;;1.90;;
25069;SDS011;13064;48.162;11.536;2023-02-22T10:45:34;6.22;;;1.50;;
25069;SDS011;13064;48.162;11.536;2023-02-22T10:48:04;5.00;;;1.65;;
25069;SDS011;13064;48.162;11.536;2023-02-22T10:50:34;3.33;;;1.50;;
25069;SDS011;13064;48.162;11.536;2023-02-22T10:53:03;3.08;;;1.15;;
25069;SDS011;13064;48.162;11.536;2023-02-22T10:55:31;5.60;;;1.40;;
25069;SDS011;13064;48.162;11.536;2023-02-22T10:58:03;5.90;;;1.50;;
25069;SDS011;13064;48.162;11.536;2023-02-22T11:00:33;2.35;;;1.33;;
25069;SDS011;13064;48.162;11.536;2023-02-22T11:03:04;8.82;;;1.52;;
25069;SDS011;13064;48.162;11.536;2023-02-22T11:05:36;6.30;;;1.45;;
25069;SDS011;13064;48.162;11.536;2023-02-22T11:10:48;4.57;;;1.42;;
25069;SDS011;13064;48.162;11.536;2023-02-22T11:13:17;3.80;;;1.30;;
25069;SDS011;13064;48.162;11.536;2023-02-22T11:15:45;4.22;;;1.40;;
25069;SDS011;13064;48.162;11.536;2023-02-22T11:18:23;8.55;;;1.85;;
25069;SDS011;13064;48.162;11.536;2023-02-22T11:21:02;3.45;;;1.33;;
25069;SDS011;13064;48.162;11.536;2023-02-22T11:23:30;4.07;;;1.58;;
25069;SDS011;13064;48.162;11.536;2023-02-22T11:26:08;7.32;;;1.52;;
25069;SDS011;13064;48.162;11.536;2023-02-22T11:28:43;4.43;;;1.40;;
25069;SDS011;13064;48.162;11.536;2023-02-22T11:31:21;5.05;;;1.35;;
25069;SDS011;13064;48.162;11.536;2023-02-22T11:36:32;3.60;;;1.55;;
25069;SDS011;13064;48.162;11.536;2023-02-22T11:39:04;2.42;;;1.30;;
25069;SDS011;13064;48.162;11.536;2023-02-22T11:41:32;4.47;;;1.45;;
25069;SDS011;13064;48.162;11.536;2023-02-22T11:46:40;2.00;;;1.20;;
25069;SDS011;13064;48.162;11.536;2023-02-22T11:49:09;3.35;;;1.30;;
25069;SDS011;13064;48.162;11.536;2023-02-22T12:04:57;3.05;;;1.08;;
25069;SDS011;13064;48.162;11.536;2023-02-22T12:07:31;1.67;;;0.93;;
25069;SDS011;13064;48.162;11.536;2023-02-22T12:10:18;4.57;;;1.02;;
25069;SDS011;13064;48.162;11.536;2023-02-22T12:15:29;1.85;;;0.80;;
25069;SDS011;13064;48.162;11.536;2023-02-22T12:18:01;1.98;;;1.00;;
25069;SDS011;13064;48.162;11.536;2023-02-22T12:20:50;2.85;;;1.33;;
25069;SDS011;13064;48.162;11.536;2023-02-22T12:23:34;2.92;;;1.00;;
25069;SDS011;13064;48.162;11.536;2023-02-22T12:26:13;4.82;;;1.45;;
25069;SDS011;13064;48.162;11.536;2023-02-22T12:28:44;4.78;;;1.30;;
25069;SDS011;13064;48.162;11.536;2023-02-22T12:33:54;3.78;;;1.20;;
25069;SDS011;13064;48.162;11.536;2023-02-22T12:36:32;3.00;;;1.30;;
25069;SDS011;13064;48.162;11.536;2023-02-22T12:39:22;2.95;;;1.05;;
25069;SDS011;13064;48.162;11.536;2023-02-22T12:41:53;3.58;;;1.13;;
25069;SDS011;13064;48.162;11.536;2023-02-22T12:44:27;6.53;;;1.70;;
25069;SDS011;13064;48.162;11.536;2023-02-22T12:46:57;3.85;;;1.35;;
25069;SDS011;13064;48.162;11.536;2023-02-22T12:49:33;3.40;;;1.40;;
25069;SDS011;13064;48.162;11.536;2023-02-22T12:52:09;9.15;;;1.60;;
25069;SDS011;13064;48.162;11.536;2023-02-22T12:54:50;5.82;;;1.42;;
25069;SDS011;13064;48.162;11.536;2023-02-22T12:59:59;1.60;;;1.00;;
25069;SDS011;13064;48.162;11.536;2023-02-22T13:04:55;2.97;;;0.93;;
25069;SDS011;13064;48.162;11.536;2023-02-22T13:15:10;3.65;;;1.08;;
25069;SDS011;13064;48.162;11.536;2023-02-22T13:17:54;3.88;;;1.00;;
25069;SDS011;13064;48.162;11.536;2023-02-22T13:20:38;1.75;;;0.88;;
25069;SDS011;13064;48.162;11.536;2023-02-22T13:23:09;2.55;;;0.98;;
25069;SDS011;13064;48.162;11.536;2023-02-22T13:25:46;1.48;;;0.70;;
25069;SDS011;13064;48.162;11.536;2023-02-22T13:28:23;2.35;;;0.80;;
25069;SDS011;13064;48.162;11.536;2023-02-22T13:31:03;2.38;;;0.80;;
25069;SDS011;13064;48.162;11.536;2023-02-22T13:41:30;3.53;;;0.95;;
25069;SDS011;13064;48.162;11.536;2023-02-22T13:49:28;3.25;;;0.82;;
25069;SDS011;13064;48.162;11.536;2023-02-22T13:57:00;1.13;;;0.70;;
25069;SDS011;13064;48.162;11.536;2023-02-22T13:59:32;1.95;;;0.70;;
25069;SDS011;13064;48.162;11.536;2023-02-22T14:02:03;1.48;;;0.70;;
25069;SDS011;13064;48.162;11.536;2023-02-22T14:04:35;1.15;;;0.50;;
25069;SDS011;13064;48.162;11.536;2023-02-22T14:07:47;1.50;;;0.35;;
25069;SDS011;13064;48.162;11.536;2023-02-22T14:09:59;2.83;;;0.50;;
25069;SDS011;13064;48.162;11.536;2023-02-22T14:20:24;7.55;;;1.00;;
25069;SDS011;13064;48.162;11.536;2023-02-22T14:22:57;3.25;;;0.70;;
25069;SDS011;13064;48.162;11.536;2023-02-22T14:25:44;11.90;;;1.30;;
25069;SDS011;13064;48.162;11.536;2023-02-22T14:31:05;4.43;;;0.90;;
25069;SDS011;13064;48.162;11.536;2023-02-22T14:36:20;1.52;;;0.50;;
25069;SDS011;13064;48.162;11.536;2023-02-22T14:38:48;3.83;;;0.95;;
25069;SDS011;13064;48.162;11.536;2023-02-22T14:41:23;3.75;;;0.90;;
25069;SDS011;13064;48.162;11.536;2023-02-22T14:43:55;0.70;;;0.50;;
25069;SDS011;13064;48.162;11.536;2023-02-22T14:46:25;1.90;;;0.70;;
25069;SDS011;13064;48.162;11.536;2023-02-22T14:48:57;3.35;;;2.00;;
25069;SDS011;13064;48.162;11.536;2023-02-22T14:54:14;6.57;;;2.53;;
25069;SDS011;13064;48.162;11.536;2023-02-22T14:56:50;7.65;;;2.45;;
25069;SDS011;13064;48.162;11.536;2023-02-22T14:59:21;5.85;;;2.28;;
25069;SDS011;13064;48.162;11.536;2023-02-22T15:04:52;7.03;;;2.25;;
25069;SDS011;13064;48.162;11.536;2023-02-22T15:09:47;5.13;;;2.42;;
25069;SDS011;13064;48.162;11.536;2023-02-22T15:12:22;6.43;;;2.10;;
25069;SDS011;13064;48.162;11.536;2023-02-22T15:17:58;3.88;;;1.90;;
25069;SDS011;13064;48.162;11.536;2023-02-22T15:20:26;4.25;;;1.90;;
25069;SDS011;13064;48.162;11.536;2023-02-22T15:22:57;5.53;;;1.92;;
25069;SDS011;13064;48.162;11.536;2023-02-22T15:25:26;6.22;;;2.08;;
25069;SDS011;13064;48.162;11.536;2023-02-22T15:28:00;3.53;;;1.60;;
25069;SDS011;13064;48.162;11.536;2023-02-22T15:30:29;5.43;;;1.92;;
25069;SDS011;13064;48.162;11.536;2023-02-22T15:33:11;3.05;;;1.85;;
25069;SDS011;13064;48.162;11.536;2023-02-22T15:35:40;4.28;;;1.80;;
25069;SDS011;13064;48.162;11.536;2023-02-22T15:40:38;5.93;;;1.92;;
25069;SDS011;13064;48.162;11.536;2023-02-22T15:43:18;5.70;;;1.85;;
25069;SDS011;13064;48.162;11.536;2023-02-22T15:45:48;5.70;;;1.70;;
25069;SDS011;13064;48.162;11.536;2023-02-22T15:48:16;4.65;;;2.08;;
25069;SDS011;13064;48.162;11.536;2023-02-22T15:50:57;3.90;;;2.20;;
25069;SDS011;13064;48.162;11.536;2023-02-22T15:53:29;4.75;;;1.50;;
25069;SDS011;13064;48.162;11.536;2023-02-22T15:56:02;8.35;;;2.10;;
25069;SDS011;13064;48.162;11.536;2023-02-22T15:58:32;4.43;;;1.73;;
25069;SDS011;13064;48.162;11.536;2023-02-22T16:01:01;8.35;;;2.10;;
25069;SDS011;13064;48.162;11.536;2023-02-22T16:03:34;5.53;;;1.60;;
25069;SDS011;13064;48.162;11.536;2023-02-22T16:06:11;6.75;;;2.50;;
25069;SDS011;13064;48.162;11.536;2023-02-22T16:08:41;8.52;;;1.98;;
25069;SDS011;13064;48.162;11.536;2023-02-22T16:13:51;3.90;;;1.70;;
25069;SDS011;13064;48.162;11.536;2023-02-22T16:16:21;14.52;;;1.90;;
25069;SDS011;13064;48.162;11.536;2023-02-22T16:18:50;8.50;;;1.95;;
25069;SDS011;13064;48.162;11.536;2023-02-22T16:21:19;8.65;;;1.90;;
25069;SDS011;13064;48.162;11.536;2023-02-22T16:23:52;6.30;;;1.83;;
25069;SDS011;13064;48.162;11.536;2023-02-22T16:26:30;7.82;;;1.92;;
25069;SDS011;13064;48.162;11.536;2023-02-22T16:31:27;6.55;;;1.70;;
25069;SDS011;13064;48.162;11.536;2023-02-22T16:33:58;11.80;;;2.20;;
25069;SDS011;13064;48.162;11.536;2023-02-22T16:36:36;9.15;;;2.63;;
25069;SDS011;13064;48.162;11.536;2023-02-22T16:39:05;8.18;;;2.47;;
25069;SDS011;13064;48.162;11.536;2023-02-22T16:41:33;6.32;;;2.10;;
25069;SDS011;13064;48.162;11.536;2023-02-22T16:44:01;5.43;;;2.00;;
25069;SDS011;13064;48.162;11.536;2023-02-22T16:46:33;6.75;;;2.05;;
25069;SDS011;13064;48.162;11.536;2023-02-22T16:49:01;8.48;;;2.10;;
25069;SDS011;13064;48.162;11.536;2023-02-22T16:51:32;10.70;;;2.13;;
25069;SDS011;13064;48.162;11.536;2023-02-22T16:54:05;9.10;;;1.90;;
25069;SDS011;13064;48.162;11.536;2023-02-22T16:56:36;7.05;;;2.05;;
25069;SDS011;13064;48.162;11.536;2023-02-22T16:59:08;6.32;;;1.88;;
25069;SDS011;13064;48.162;11.536;2023-02-22T17:01:37;9.75;;;2.30;;
25069;SDS011;13064;48.162;11.536;2023-02-22T17:04:09;15.90;;;2.90;;
25069;SDS011;13064;48.162;11.536;2023-02-22T17:06:39;11.18;;;3.05;;